Time;durP1;ratioP1;P1;durP2;ratioP2;P2;SDS_P1;SDS_P2;PMS_P1;PMS_P2;Temp;Humidity;BMP_temperature;BMP_pressure;BME280_temperature;BME280_humidity;BME280_pressure;Samples;Min_cycle;Max_cycle;Signal;HPM_P1;HPM_P2
2023/07/16 00:01:31;;;;;;;;;;;25.90;59.00;;;;;;5053102;28;20403;-52
2023/07/16 00:03:56;;;;;;;;;;;25.90;59.20;;;;;;5065253;28;20015;-52
2023/07/16 00:06:22;;;;;;;;;;;25.80;59.60;;;;;;5051727;28;19917;-52
2023/07/16 00:08:47;;;;;;;;;;;25.70;59.60;;;;;;5051628;28;19912;-53
2023/07/16 00:11:13;;;;;;;;;;;25.80;59.70;;;;;;5055731;28;19920;-52
2023/07/16 00:13:38;;;;;;;;;;;25.70;59.70;;;;;;5053285;28;20027;-52
2023/07/16 00:16:04;;;;;;;;;;;25.70;60.10;;;;;;5056597;28;19919;-52
2023/07/16 00:18:29;;;;;;;;;;;25.80;60.10;;;;;;5054647;28;19912;-52
2023/07/16 00:20:54;;;;;;;;;;;25.70;60.30;;;;;;5055318;28;20057;-52
2023/07/16 00:23:20;;;;;;;;;;;25.70;60.30;;;;;;5072188;28;19920;-52
2023/07/16 00:25:45;;;;;;;;;;;25.80;60.00;;;;;;5074579;28;19913;-52
2023/07/16 00:28:11;;;;;;;;;;;25.90;59.70;;;;;;5066984;28;19935;-52
2023/07/16 00:30:37;;;;;;;;;;;25.90;60.10;;;;;;5072951;28;19913;-52
2023/07/16 00:33:02;;;;;;;;;;;25.90;59.90;;;;;;5066397;28;19916;-53
2023/07/16 00:35:28;;;;;;;;;;;25.90;59.90;;;;;;5071932;28;19920;-52
2023/07/16 00:37:53;;;;;;;;;;;25.90;59.80;;;;;;5071331;28;19922;-52
2023/07/16 00:40:19;;;;;;;;;;;25.90;59.70;;;;;;5069282;28;19916;-52
2023/07/16 00:42:44;;;;;;;;;;;25.90;60.00;;;;;;5073797;28;19955;-52
2023/07/16 00:45:12;;;;;;;;;;;25.90;60.10;;;;;;5061424;28;19928;-52
2023/07/16 00:47:38;;;;;;;;;;;25.90;60.40;;;;;;5056160;28;20450;-52
2023/07/16 00:50:03;;;;;;;;;;;25.90;60.30;;;;;;5054907;28;19917;-52
2023/07/16 00:52:29;;;;;;;;;;;25.90;60.60;;;;;;5053340;28;19909;-52
2023/07/16 00:54:54;;;;;;;;;;;25.80;60.40;;;;;;5053445;28;19921;-52
2023/07/16 00:57:20;;;;;;;;;;;25.80;60.80;;;;;;5065965;28;20381;-52
2023/07/16 00:59:45;;;;;;;;;;;25.80;61.00;;;;;;5071002;28;20293;-53
2023/07/16 01:02:11;;;;;;;;;;;25.70;61.00;;;;;;5061365;28;19982;-52
2023/07/16 01:04:36;;;;;;;;;;;25.70;61.20;;;;;;5053473;28;19931;-53
2023/07/16 01:07:02;;;;;;;;;;;25.70;61.20;;;;;;5054646;28;19916;-53
2023/07/16 01:09:29;;;;;;;;;;;25.60;61.20;;;;;;5072099;28;20378;-53
2023/07/16 01:11:54;;;;;;;;;;;25.70;61.20;;;;;;5073512;28;19913;-53
2023/07/16 01:14:20;;;;;;;;;;;25.70;61.00;;;;;;5063428;28;19923;-52
2023/07/16 01:16:45;;;;;;;;;;;25.70;60.90;;;;;;5052014;28;20023;-52
2023/07/16 01:19:11;;;;;;;;;;;25.70;60.90;;;;;;5057621;28;19913;-53
2023/07/16 01:21:46;;;;;;;;;;;25.70;60.80;;;;;;5071540;28;19909;-53
2023/07/16 01:24:14;;;;;;;;;;;25.70;60.70;;;;;;5068410;28;19998;-53
2023/07/16 01:27:02;;;;;;;;;;;25.70;60.70;;;;;;5052218;28;20003;-52
2023/07/16 01:29:32;;;;;;;;;;;25.70;60.60;;;;;;5056645;28;19917;-53
2023/07/16 01:31:59;;;;;;;;;;;25.60;60.40;;;;;;5057330;28;19912;-53
2023/07/16 01:34:24;;;;;;;;;;;25.60;60.20;;;;;;5051746;28;19909;-53
2023/07/16 01:36:50;;;;;;;;;;;25.60;60.30;;;;;;5056378;28;20357;-53
2023/07/16 01:39:15;;;;;;;;;;;25.60;60.00;;;;;;5058985;28;19983;-53
2023/07/16 01:41:41;;;;;;;;;;;25.60;59.70;;;;;;5060329;28;19920;-53
2023/07/16 01:44:06;;;;;;;;;;;25.60;60.20;;;;;;5053616;28;19913;-53
2023/07/16 01:46:32;;;;;;;;;;;25.60;59.50;;;;;;5053119;28;19952;-52
2023/07/16 01:48:57;;;;;;;;;;;25.60;59.30;;;;;;5053716;28;20381;-52
2023/07/16 01:51:23;;;;;;;;;;;25.60;58.90;;;;;;5051192;28;20364;-52
2023/07/16 01:53:48;;;;;;;;;;;25.60;59.00;;;;;;5054368;28;19913;-52
2023/07/16 01:56:13;;;;;;;;;;;25.60;58.70;;;;;;5056015;28;19916;-53
2023/07/16 01:58:39;;;;;;;;;;;25.60;58.40;;;;;;5051842;28;19916;-52
2023/07/16 02:01:04;;;;;;;;;;;25.40;58.30;;;;;;5051416;28;19916;-53
2023/07/16 02:03:30;;;;;;;;;;;25.50;58.10;;;;;;5050408;28;19913;-53
2023/07/16 02:05:56;;;;;;;;;;;25.50;58.10;;;;;;5050634;28;19913;-53
2023/07/16 02:08:21;;;;;;;;;;;25.50;57.90;;;;;;5051578;28;19927;-53
2023/07/16 02:10:47;;;;;;;;;;;25.50;57.90;;;;;;5050058;28;20408;-53
2023/07/16 02:13:12;;;;;;;;;;;25.50;57.70;;;;;;5052033;28;19912;-53
2023/07/16 02:15:38;;;;;;;;;;;25.50;57.60;;;;;;5058049;28;19920;-53
2023/07/16 02:18:04;;;;;;;;;;;25.50;57.50;;;;;;5049769;28;19982;-53
2023/07/16 02:20:29;;;;;;;;;;;25.40;57.70;;;;;;5051634;28;19975;-52
2023/07/16 02:22:54;;;;;;;;;;;25.40;57.60;;;;;;5048340;28;20020;-53
2023/07/16 02:25:20;;;;;;;;;;;25.40;57.30;;;;;;5053579;28;19974;-53
2023/07/16 02:27:45;;;;;;;;;;;25.40;57.30;;;;;;5051097;28;19975;-52
2023/07/16 02:30:11;;;;;;;;;;;25.40;57.30;;;;;;5067770;28;19909;-53
2023/07/16 02:32:36;;;;;;;;;;;25.40;57.10;;;;;;5071461;28;19908;-53
2023/07/16 02:35:03;;;;;;;;;;;25.40;57.10;;;;;;5063678;28;20748;-53
2023/07/16 02:37:28;;;;;;;;;;;25.40;57.20;;;;;;5059606;28;19920;-52
2023/07/16 02:39:54;;;;;;;;;;;25.40;57.00;;;;;;5051846;28;19923;-53
2023/07/16 02:42:19;;;;;;;;;;;25.40;57.10;;;;;;5057045;28;19924;-53
2023/07/16 02:44:45;;;;;;;;;;;25.40;57.00;;;;;;5071940;28;19916;-53
2023/07/16 02:47:13;;;;;;;;;;;25.40;56.90;;;;;;5051306;28;19920;-53
2023/07/16 02:49:38;;;;;;;;;;;25.40;56.70;;;;;;5071260;28;20372;-52
2023/07/16 02:52:04;;;;;;;;;;;25.40;56.70;;;;;;5069258;28;19944;-52
2023/07/16 02:54:30;;;;;;;;;;;25.40;56.70;;;;;;5055453;28;20003;-52
2023/07/16 02:56:55;;;;;;;;;;;25.40;56.50;;;;;;5052032;28;20357;-52
2023/07/16 02:59:21;;;;;;;;;;;25.40;56.70;;;;;;5051512;28;20424;-52
2023/07/16 03:01:46;;;;;;;;;;;25.40;56.40;;;;;;5051891;28;19990;-53
2023/07/16 03:04:12;;;;;;;;;;;25.40;56.40;;;;;;5051482;28;20331;-52
2023/07/16 03:06:37;;;;;;;;;;;25.40;56.30;;;;;;5057749;28;19939;-53
2023/07/16 03:09:03;;;;;;;;;;;25.40;56.40;;;;;;5071446;28;19913;-53
2023/07/16 03:11:28;;;;;;;;;;;25.40;56.40;;;;;;5055993;28;19919;-52
2023/07/16 03:13:54;;;;;;;;;;;25.40;56.50;;;;;;5056873;28;20306;-52
2023/07/16 03:16:19;;;;;;;;;;;25.40;56.60;;;;;;5050428;28;19999;-53
2023/07/16 03:18:45;;;;;;;;;;;25.30;56.60;;;;;;5049740;28;19913;-53
2023/07/16 03:21:10;;;;;;;;;;;25.30;56.70;;;;;;5049402;28;19939;-53
2023/07/16 03:23:36;;;;;;;;;;;25.30;56.70;;;;;;5051664;28;19923;-52
2023/07/16 03:26:01;;;;;;;;;;;25.40;56.70;;;;;;5049003;28;19970;-53
2023/07/16 03:28:27;;;;;;;;;;;25.40;56.60;;;;;;5047924;28;20003;-53
2023/07/16 03:30:53;;;;;;;;;;;25.40;56.70;;;;;;5051705;28;19917;-53
2023/07/16 03:33:19;;;;;;;;;;;25.30;56.90;;;;;;5053160;28;20046;-52
2023/07/16 03:35:48;;;;;;;;;;;25.30;57.00;;;;;;5049924;28;20436;-53
2023/07/16 03:38:13;;;;;;;;;;;25.20;56.90;;;;;;5049088;28;20007;-53
2023/07/16 03:40:39;;;;;;;;;;;25.20;57.10;;;;;;5052303;28;20451;-52
2023/07/16 03:43:04;;;;;;;;;;;25.10;57.00;;;;;;5052884;28;19912;-53
2023/07/16 03:45:30;;;;;;;;;;;25.20;57.10;;;;;;5067914;28;19917;-53
2023/07/16 03:47:55;;;;;;;;;;;25.20;57.10;;;;;;5051526;28;19920;-52
2023/07/16 03:50:21;;;;;;;;;;;25.20;57.10;;;;;;5051533;28;19986;-53
2023/07/16 03:52:46;;;;;;;;;;;25.10;56.90;;;;;;5054930;28;19928;-52
2023/07/16 03:55:11;;;;;;;;;;;25.10;56.90;;;;;;5056005;28;19927;-53
2023/07/16 03:57:37;;;;;;;;;;;25.20;56.90;;;;;;5056423;28;20301;-53
2023/07/16 04:00:04;;;;;;;;;;;25.20;57.00;;;;;;5054577;28;20312;-52
2023/07/16 04:02:30;;;;;;;;;;;25.10;56.70;;;;;;5058596;28;19956;-53
2023/07/16 04:04:56;;;;;;;;;;;25.10;56.70;;;;;;5052179;28;23054;-53
2023/07/16 04:07:21;;;;;;;;;;;25.10;56.80;;;;;;5052598;28;19956;-52
2023/07/16 04:09:46;;;;;;;;;;;25.10;56.90;;;;;;5055953;28;19924;-53
2023/07/16 04:12:12;;;;;;;;;;;25.00;57.00;;;;;;5053957;28;19924;-53
2023/07/16 04:14:37;;;;;;;;;;;25.00;57.10;;;;;;5054523;28;19924;-52
2023/07/16 04:17:03;;;;;;;;;;;24.90;57.30;;;;;;5052429;28;19965;-53
2023/07/16 04:19:28;;;;;;;;;;;24.90;57.40;;;;;;5052871;28;20428;-52
2023/07/16 04:21:54;;;;;;;;;;;24.90;57.40;;;;;;5052730;28;19961;-53
2023/07/16 04:24:19;;;;;;;;;;;24.80;57.70;;;;;;5057961;28;20058;-52
2023/07/16 04:26:44;;;;;;;;;;;24.80;57.80;;;;;;5051627;28;19913;-53
2023/07/16 04:29:10;;;;;;;;;;;24.80;57.90;;;;;;5051261;28;19931;-53
2023/07/16 04:31:35;;;;;;;;;;;24.90;58.20;;;;;;5050541;28;19928;-52
2023/07/16 04:34:01;;;;;;;;;;;24.90;58.00;;;;;;5054700;28;19965;-52
2023/07/16 04:36:26;;;;;;;;;;;24.90;58.30;;;;;;5058442;28;19917;-53
2023/07/16 04:38:52;;;;;;;;;;;24.90;58.30;;;;;;5050919;28;19913;-52
2023/07/16 04:41:17;;;;;;;;;;;24.90;58.40;;;;;;5050772;28;20285;-53
2023/07/16 04:43:43;;;;;;;;;;;24.90;58.40;;;;;;5051689;28;20047;-52
2023/07/16 04:46:08;;;;;;;;;;;24.90;58.50;;;;;;5054063;28;19920;-53
2023/07/16 04:48:33;;;;;;;;;;;24.90;58.40;;;;;;5052554;28;20007;-52
2023/07/16 04:50:59;;;;;;;;;;;24.90;58.60;;;;;;5056100;28;19913;-52
2023/07/16 04:53:24;;;;;;;;;;;24.90;58.90;;;;;;5049907;28;19913;-52
2023/07/16 04:55:50;;;;;;;;;;;24.80;59.00;;;;;;5050901;28;20011;-52
2023/07/16 04:58:15;;;;;;;;;;;24.80;59.00;;;;;;5051911;28;19919;-52
2023/07/16 05:00:41;;;;;;;;;;;24.80;59.00;;;;;;5056424;28;19955;-53
2023/07/16 05:03:06;;;;;;;;;;;24.80;59.00;;;;;;5053209;28;19919;-52
2023/07/16 05:05:32;;;;;;;;;;;24.70;58.90;;;;;;5053524;28;19909;-52
2023/07/16 05:07:57;;;;;;;;;;;24.80;59.00;;;;;;5066789;28;20729;-53
2023/07/16 05:10:23;;;;;;;;;;;24.80;59.60;;;;;;5073513;28;19917;-53
2023/07/16 05:12:48;;;;;;;;;;;24.70;58.90;;;;;;5065838;28;19913;-52
2023/07/16 05:15:14;;;;;;;;;;;24.70;59.10;;;;;;5051538;28;20365;-52
2023/07/16 05:17:39;;;;;;;;;;;24.70;58.90;;;;;;5051510;28;20395;-52
2023/07/16 05:20:05;;;;;;;;;;;24.70;58.90;;;;;;5052406;28;19916;-53
2023/07/16 05:22:31;;;;;;;;;;;24.80;59.00;;;;;;5051454;28;19913;-53
2023/07/16 05:24:56;;;;;;;;;;;24.80;59.00;;;;;;5053392;28;19920;-53
2023/07/16 05:27:22;;;;;;;;;;;24.80;59.00;;;;;;5052488;28;20002;-52
2023/07/16 05:29:48;;;;;;;;;;;24.80;59.00;;;;;;5056202;28;19917;-53
2023/07/16 05:32:13;;;;;;;;;;;24.70;58.90;;;;;;5051152;28;19923;-53
2023/07/16 05:34:39;;;;;;;;;;;24.70;58.90;;;;;;5050815;28;19919;-53
2023/07/16 05:37:04;;;;;;;;;;;24.70;58.90;;;;;;5050379;28;19917;-52
2023/07/16 05:39:30;;;;;;;;;;;24.70;59.00;;;;;;5051236;28;20034;-52
2023/07/16 05:41:55;;;;;;;;;;;24.60;59.00;;;;;;5053683;28;19913;-53
2023/07/16 05:44:21;;;;;;;;;;;24.50;59.20;;;;;;5050903;28;19961;-53
2023/07/16 05:46:46;;;;;;;;;;;24.50;59.30;;;;;;5048090;28;19929;-53
2023/07/16 05:49:11;;;;;;;;;;;24.50;59.00;;;;;;5053143;28;19913;-53
2023/07/16 05:51:37;;;;;;;;;;;24.50;59.10;;;;;;5049762;28;19944;-53
2023/07/16 05:54:02;;;;;;;;;;;24.50;58.90;;;;;;5053491;28;19917;-52
2023/07/16 05:56:28;;;;;;;;;;;24.50;58.80;;;;;;5050398;28;19944;-53
2023/07/16 05:58:53;;;;;;;;;;;24.40;58.70;;;;;;5050849;28;19913;-53
2023/07/16 06:01:19;;;;;;;;;;;24.40;58.70;;;;;;5049328;28;19920;-53
2023/07/16 06:03:44;;;;;;;;;;;24.40;58.60;;;;;;5049838;28;19917;-53
2023/07/16 06:06:10;;;;;;;;;;;24.50;58.30;;;;;;5055348;28;20293;-53
2023/07/16 06:08:35;;;;;;;;;;;24.50;58.30;;;;;;5049220;28;20380;-53
2023/07/16 06:11:01;;;;;;;;;;;24.50;57.90;;;;;;5055367;28;20404;-52
2023/07/16 06:13:26;;;;;;;;;;;24.50;57.30;;;;;;5050164;28;20338;-52
2023/07/16 06:15:51;;;;;;;;;;;24.50;57.00;;;;;;5048680;28;19913;-53
2023/07/16 06:18:17;;;;;;;;;;;24.40;56.50;;;;;;5052732;28;19920;-53
2023/07/16 06:20:43;;;;;;;;;;;24.40;56.50;;;;;;5049741;28;19924;-52
2023/07/16 06:23:11;;;;;;;;;;;24.40;56.20;;;;;;5045994;28;19980;-52
2023/07/16 06:25:36;;;;;;;;;;;24.50;56.10;;;;;;5051268;28;19978;-52
2023/07/16 06:28:02;;;;;;;;;;;24.50;55.80;;;;;;5049366;28;19932;-53
2023/07/16 06:30:27;;;;;;;;;;;24.40;55.70;;;;;;5048797;28;19959;-53
2023/07/16 06:32:52;;;;;;;;;;;24.30;55.50;;;;;;5048067;28;19947;-53
2023/07/16 06:35:18;;;;;;;;;;;24.30;55.30;;;;;;5051561;28;20015;-53
2023/07/16 06:37:44;;;;;;;;;;;24.30;55.40;;;;;;5048362;28;19921;-53
2023/07/16 06:40:09;;;;;;;;;;;24.30;55.20;;;;;;5052742;28;19921;-53
2023/07/16 06:42:35;;;;;;;;;;;24.30;55.20;;;;;;5051203;28;19940;-52
2023/07/16 06:45:00;;;;;;;;;;;24.30;55.10;;;;;;5048036;28;19923;-53
2023/07/16 06:47:26;;;;;;;;;;;24.30;55.00;;;;;;5054173;28;19928;-54
2023/07/16 06:49:51;;;;;;;;;;;24.30;54.70;;;;;;5049996;28;19920;-53
2023/07/16 06:52:24;;;;;;;;;;;24.30;54.70;;;;;;5049760;28;19929;-53
2023/07/16 06:54:49;;;;;;;;;;;24.30;54.80;;;;;;5049023;28;19920;-52
2023/07/16 06:57:15;;;;;;;;;;;24.30;54.70;;;;;;5050390;28;19913;-53
2023/07/16 06:59:40;;;;;;;;;;;24.30;54.50;;;;;;5048644;28;19924;-53
2023/07/16 07:02:06;;;;;;;;;;;24.20;54.50;;;;;;5050990;28;19917;-53
2023/07/16 07:04:31;;;;;;;;;;;24.30;54.50;;;;;;5049516;28;19913;-53
2023/07/16 07:06:57;;;;;;;;;;;24.40;54.20;;;;;;5051144;28;19917;-53
2023/07/16 07:09:22;;;;;;;;;;;24.30;54.10;;;;;;5049677;28;19924;-53
2023/07/16 07:11:48;;;;;;;;;;;24.10;53.90;;;;;;5049786;28;19946;-53
2023/07/16 07:14:13;;;;;;;;;;;24.10;54.10;;;;;;5052103;28;19913;-53
2023/07/16 07:16:39;;;;;;;;;;;24.20;54.10;;;;;;5057400;28;20047;-52
2023/07/16 07:19:05;;;;;;;;;;;24.20;54.00;;;;;;5053913;28;19999;-53
2023/07/16 07:21:31;;;;;;;;;;;24.30;53.90;;;;;;5053691;28;20074;-53
2023/07/16 07:23:56;;;;;;;;;;;24.30;53.80;;;;;;5056029;28;19912;-53
2023/07/16 07:26:21;;;;;;;;;;;24.30;53.80;;;;;;5052777;28;19913;-53
2023/07/16 07:28:47;;;;;;;;;;;24.30;53.70;;;;;;5051260;28;20011;-53
2023/07/16 07:31:12;;;;;;;;;;;24.40;53.60;;;;;;5053937;28;19916;-53
2023/07/16 07:33:38;;;;;;;;;;;24.30;53.40;;;;;;5055650;28;19966;-53
2023/07/16 07:36:03;;;;;;;;;;;24.40;53.40;;;;;;5052300;28;19920;-52
2023/07/16 07:38:29;;;;;;;;;;;24.30;53.30;;;;;;5053530;28;19923;-53
2023/07/16 07:40:54;;;;;;;;;;;24.30;53.30;;;;;;5052483;28;19920;-52
2023/07/16 07:43:20;;;;;;;;;;;24.40;53.30;;;;;;5051383;28;19921;-53
2023/07/16 07:45:45;;;;;;;;;;;24.30;53.30;;;;;;5057296;28;19925;-53
2023/07/16 07:48:11;;;;;;;;;;;24.30;53.90;;;;;;5056640;28;20052;-53
2023/07/16 07:50:36;;;;;;;;;;;24.30;53.30;;;;;;5054997;28;19913;-53
2023/07/16 07:53:02;;;;;;;;;;;24.30;53.20;;;;;;5055207;28;19952;-53
2023/07/16 07:55:27;;;;;;;;;;;24.30;53.20;;;;;;5053447;28;19920;-53
2023/07/16 07:57:53;;;;;;;;;;;24.30;53.30;;;;;;5053755;28;20029;-53
2023/07/16 08:00:18;;;;;;;;;;;24.20;53.20;;;;;;5052437;28;19921;-53
2023/07/16 08:02:44;;;;;;;;;;;24.20;53.40;;;;;;5054588;28;19917;-53
2023/07/16 08:05:09;;;;;;;;;;;24.30;53.50;;;;;;5052814;28;19920;-53
2023/07/16 08:07:35;;;;;;;;;;;24.30;53.40;;;;;;5052029;28;19917;-53
2023/07/16 08:10:00;;;;;;;;;;;24.30;53.30;;;;;;5052758;28;19920;-53
2023/07/16 08:12:26;;;;;;;;;;;24.30;53.30;;;;;;5056223;28;19959;-53
2023/07/16 08:14:51;;;;;;;;;;;24.30;53.60;;;;;;5053454;28;19944;-53
2023/07/16 08:17:16;;;;;;;;;;;24.30;53.40;;;;;;5051531;28;19931;-53
2023/07/16 08:19:42;;;;;;;;;;;24.40;53.30;;;;;;5057513;28;19962;-52
2023/07/16 08:22:07;;;;;;;;;;;24.40;53.30;;;;;;5052629;28;19923;-53
2023/07/16 08:24:33;;;;;;;;;;;24.30;53.00;;;;;;5049447;28;19913;-53
2023/07/16 08:26:58;;;;;;;;;;;24.30;52.70;;;;;;5051432;28;20310;-53
2023/07/16 08:29:24;;;;;;;;;;;24.30;52.70;;;;;;5052602;28;20336;-53
2023/07/16 08:31:50;;;;;;;;;;;24.30;52.60;;;;;;5053852;28;20332;-53
2023/07/16 08:34:15;;;;;;;;;;;24.30;51.90;;;;;;5069850;28;19912;-53
2023/07/16 08:36:42;;;;;;;;;;;24.30;51.70;;;;;;5071714;28;20011;-52
2023/07/16 08:39:08;;;;;;;;;;;24.20;51.50;;;;;;5064028;28;20380;-53
2023/07/16 08:41:33;;;;;;;;;;;24.30;51.50;;;;;;5050489;28;19916;-53
2023/07/16 08:43:58;;;;;;;;;;;24.30;51.50;;;;;;5056640;28;19921;-53
2023/07/16 08:46:24;;;;;;;;;;;24.30;51.50;;;;;;5052494;28;19928;-52
2023/07/16 08:48:49;;;;;;;;;;;24.30;51.70;;;;;;5053362;28;20437;-53
2023/07/16 08:51:15;;;;;;;;;;;24.30;51.80;;;;;;5052446;28;20379;-53
2023/07/16 08:53:41;;;;;;;;;;;24.30;51.80;;;;;;5050589;28;20008;-53
2023/07/16 08:56:06;;;;;;;;;;;24.30;51.60;;;;;;5049448;28;20004;-53
2023/07/16 08:58:32;;;;;;;;;;;24.20;51.70;;;;;;5045922;28;20308;-53
2023/07/16 09:00:58;;;;;;;;;;;24.30;51.60;;;;;;5052986;28;20346;-54
2023/07/16 09:03:23;;;;;;;;;;;24.40;51.30;;;;;;5055641;28;19955;-53
2023/07/16 09:05:49;;;;;;;;;;;24.50;51.00;;;;;;5058182;28;19996;-54
2023/07/16 09:08:14;;;;;;;;;;;24.50;50.70;;;;;;5059447;28;19919;-53
2023/07/16 09:10:40;;;;;;;;;;;24.50;50.10;;;;;;5064614;28;20273;-53
2023/07/16 09:13:06;;;;;;;;;;;24.60;50.00;;;;;;5058355;28;19920;-53
2023/07/16 09:15:33;;;;;;;;;;;24.70;50.20;;;;;;5051590;28;19920;-53
2023/07/16 09:17:59;;;;;;;;;;;24.70;50.10;;;;;;5057213;28;19920;-52
2023/07/16 09:20:24;;;;;;;;;;;24.70;49.70;;;;;;5051737;28;19917;-53
2023/07/16 09:22:53;;;;;;;;;;;24.80;49.60;;;;;;5050413;28;20304;-53
2023/07/16 09:25:18;;;;;;;;;;;24.70;49.20;;;;;;5050781;28;20331;-53
2023/07/16 09:27:44;;;;;;;;;;;24.80;49.00;;;;;;5053476;28;20019;-54
2023/07/16 09:30:14;;;;;;;;;;;24.80;48.90;;;;;;5050404;28;19913;-53
2023/07/16 09:32:40;;;;;;;;;;;24.80;48.90;;;;;;5060753;28;20288;-53
2023/07/16 09:35:11;;;;;;;;;;;24.70;48.80;;;;;;5055323;28;19934;-53
2023/07/16 09:37:37;;;;;;;;;;;24.80;48.50;;;;;;5053964;28;20377;-53
2023/07/16 09:40:06;;;;;;;;;;;24.90;48.50;;;;;;5053917;28;19964;-54
2023/07/16 09:42:31;;;;;;;;;;;24.80;48.40;;;;;;5062564;28;19912;-53
2023/07/16 09:44:58;;;;;;;;;;;24.80;48.30;;;;;;5052408;28;19917;-53
2023/07/16 09:47:24;;;;;;;;;;;24.80;48.60;;;;;;5055485;28;19924;-53
2023/07/16 09:49:49;;;;;;;;;;;24.80;48.30;;;;;;5057436;28;20277;-53
2023/07/16 09:52:15;;;;;;;;;;;24.90;48.30;;;;;;5062142;28;20359;-53
2023/07/16 09:54:40;;;;;;;;;;;24.90;48.20;;;;;;5055749;28;20000;-52
2023/07/16 09:57:06;;;;;;;;;;;24.80;48.00;;;;;;5057100;28;20019;-53
2023/07/16 09:59:31;;;;;;;;;;;24.90;48.00;;;;;;5052262;28;19909;-53
2023/07/16 10:01:57;;;;;;;;;;;24.80;47.70;;;;;;5051448;28;19912;-53
2023/07/16 10:04:22;;;;;;;;;;;24.80;47.60;;;;;;5065704;28;19917;-52
2023/07/16 10:06:51;;;;;;;;;;;24.80;47.70;;;;;;5053962;28;19912;-53
2023/07/16 10:09:52;;;;;;;;;;;24.80;47.50;;;;;;5051646;28;19912;-53
2023/07/16 10:12:18;;;;;;;;;;;24.80;47.60;;;;;;5021123;28;20052;-53
2023/07/16 10:14:44;;;;;;;;;;;24.90;48.20;;;;;;5050195;28;19921;-53
2023/07/16 10:17:14;;;;;;;;;;;24.90;47.40;;;;;;5054658;28;19919;-54
2023/07/16 10:19:49;;;;;;;;;;;24.90;47.40;;;;;;5062398;28;19920;-53
2023/07/16 10:22:15;;;;;;;;;;;24.90;48.00;;;;;;5059696;28;20379;-54
2023/07/16 10:24:40;;;;;;;;;;;24.90;47.40;;;;;;5051160;28;19921;-53
2023/07/16 10:27:06;;;;;;;;;;;24.90;47.60;;;;;;5053907;28;20246;-53
2023/07/16 10:29:31;;;;;;;;;;;24.90;47.50;;;;;;5051450;28;19959;-53
2023/07/16 10:31:58;;;;;;;;;;;25.00;47.60;;;;;;5048597;28;20393;-53
2023/07/16 10:34:23;;;;;;;;;;;24.90;47.40;;;;;;5050291;28;20387;-53
2023/07/16 10:36:49;;;;;;;;;;;24.90;47.20;;;;;;5048876;28;19917;-53
2023/07/16 10:39:15;;;;;;;;;;;24.90;47.10;;;;;;5050948;28;20274;-53
2023/07/16 10:41:40;;;;;;;;;;;25.00;47.00;;;;;;5049721;28;19982;-53
2023/07/16 10:44:07;;;;;;;;;;;25.00;47.10;;;;;;5055708;28;20402;-53
2023/07/16 10:46:33;;;;;;;;;;;25.00;47.10;;;;;;5047812;28;20347;-53
2023/07/16 10:48:58;;;;;;;;;;;25.00;47.30;;;;;;5054798;28;19913;-53
2023/07/16 10:51:27;;;;;;;;;;;25.00;47.40;;;;;;5053620;28;19967;-52
2023/07/16 10:53:54;;;;;;;;;;;25.00;47.70;;;;;;5053743;28;19913;-53
2023/07/16 10:56:20;;;;;;;;;;;25.10;47.20;;;;;;5055777;28;19913;-53
2023/07/16 10:58:45;;;;;;;;;;;25.10;47.30;;;;;;5053260;28;19935;-53
2023/07/16 11:01:11;;;;;;;;;;;25.10;47.30;;;;;;5056513;28;20397;-53
2023/07/16 11:03:37;;;;;;;;;;;25.10;47.20;;;;;;5053837;28;20363;-53
2023/07/16 11:06:06;;;;;;;;;;;25.10;47.40;;;;;;5053103;28;20042;-52
2023/07/16 11:08:31;;;;;;;;;;;25.10;47.30;;;;;;5052121;28;19970;-52
2023/07/16 11:10:57;;;;;;;;;;;25.10;48.10;;;;;;5053823;28;19921;-52
2023/07/16 11:13:29;;;;;;;;;;;25.20;47.40;;;;;;5055541;28;19917;-52
2023/07/16 11:15:54;;;;;;;;;;;25.20;47.40;;;;;;5054451;28;22554;-52
2023/07/16 11:18:22;;;;;;;;;;;25.20;47.40;;;;;;5062210;28;19919;-52
2023/07/16 11:20:50;;;;;;;;;;;25.20;47.50;;;;;;5053964;28;19916;-52
2023/07/16 11:23:15;;;;;;;;;;;25.20;47.50;;;;;;5060799;28;19913;-52
2023/07/16 11:25:45;;;;;;;;;;;25.20;47.40;;;;;;5055908;28;19925;-52
2023/07/16 11:28:10;;;;;;;;;;;25.20;47.40;;;;;;5057571;28;19928;-52
2023/07/16 11:30:36;;;;;;;;;;;25.30;47.60;;;;;;5056839;28;19920;-52
2023/07/16 11:33:01;;;;;;;;;;;25.20;47.20;;;;;;5054575;28;19912;-52
2023/07/16 11:35:27;;;;;;;;;;;25.30;47.20;;;;;;5052140;28;19913;-52
2023/07/16 11:37:54;;;;;;;;;;;25.30;47.10;;;;;;5051718;28;19960;-52
2023/07/16 11:40:19;;;;;;;;;;;25.30;47.20;;;;;;5056509;28;20009;-52
2023/07/16 11:42:45;;;;;;;;;;;25.30;46.90;;;;;;5052625;28;20719;-52
2023/07/16 11:45:17;;;;;;;;;;;25.30;46.70;;;;;;5053086;28;19917;-52
2023/07/16 11:47:43;;;;;;;;;;;25.20;46.60;;;;;;5051738;28;20048;-52
2023/07/16 11:50:08;;;;;;;;;;;25.20;46.70;;;;;;5051632;28;20405;-52
2023/07/16 11:52:34;;;;;;;;;;;25.20;46.70;;;;;;5051213;28;20341;-52
2023/07/16 11:55:00;;;;;;;;;;;25.20;46.60;;;;;;5068064;28;19912;-52
2023/07/16 11:57:25;;;;;;;;;;;25.30;46.60;;;;;;5056689;28;19919;-52
2023/07/16 11:59:50;;;;;;;;;;;25.20;46.70;;;;;;5071023;28;19959;-52
2023/07/16 12:02:16;;;;;;;;;;;25.20;46.50;;;;;;5064004;28;20012;-53
2023/07/16 12:04:42;;;;;;;;;;;25.20;46.40;;;;;;5062989;28;20329;-53
2023/07/16 12:07:07;;;;;;;;;;;25.30;46.50;;;;;;5051433;28;19921;-53
2023/07/16 12:09:33;;;;;;;;;;;25.30;46.70;;;;;;5059130;28;19928;-53
2023/07/16 12:11:59;;;;;;;;;;;25.40;46.40;;;;;;5069180;28;19923;-52
2023/07/16 12:14:24;;;;;;;;;;;25.40;46.50;;;;;;5067859;28;20007;-52
2023/07/16 12:16:49;;;;;;;;;;;25.30;46.30;;;;;;5071112;28;19915;-52
2023/07/16 12:19:15;;;;;;;;;;;25.30;46.30;;;;;;5061916;28;19917;-52
2023/07/16 12:21:40;;;;;;;;;;;25.30;46.30;;;;;;5054233;28;20015;-53
2023/07/16 12:24:06;;;;;;;;;;;25.30;46.40;;;;;;5073022;28;19908;-52
2023/07/16 12:26:31;;;;;;;;;;;25.40;46.60;;;;;;5073505;28;19909;-52
2023/07/16 12:28:57;;;;;;;;;;;25.40;46.80;;;;;;5065775;28;20365;-53
2023/07/16 12:31:22;;;;;;;;;;;25.30;46.10;;;;;;5062828;28;19935;-53
2023/07/16 12:33:48;;;;;;;;;;;25.40;46.10;;;;;;5052536;28;19917;-52
2023/07/16 12:36:13;;;;;;;;;;;25.40;46.10;;;;;;5047889;28;19923;-53
2023/07/16 12:38:39;;;;;;;;;;;25.30;46.10;;;;;;5060562;28;19913;-53
2023/07/16 12:41:05;;;;;;;;;;;25.30;46.10;;;;;;5068476;28;20314;-53
2023/07/16 12:43:32;;;;;;;;;;;25.30;46.20;;;;;;5070930;28;19915;-52
2023/07/16 12:45:57;;;;;;;;;;;25.30;46.20;;;;;;5053809;28;19956;-53
2023/07/16 12:48:23;;;;;;;;;;;25.30;46.00;;;;;;5072140;28;19975;-53
2023/07/16 12:50:48;;;;;;;;;;;25.30;46.00;;;;;;5069031;28;19958;-52
2023/07/16 12:53:14;;;;;;;;;;;25.40;46.30;;;;;;5056615;28;20011;-52
2023/07/16 12:55:39;;;;;;;;;;;25.40;45.90;;;;;;5062589;28;20345;-52
2023/07/16 12:58:05;;;;;;;;;;;25.40;45.90;;;;;;5054819;28;20387;-53
2023/07/16 13:00:30;;;;;;;;;;;25.40;46.00;;;;;;5056407;28;19920;-53
2023/07/16 13:02:55;;;;;;;;;;;25.40;45.90;;;;;;5062113;28;19966;-52
2023/07/16 13:05:21;;;;;;;;;;;25.40;45.70;;;;;;5053885;28;19913;-53
2023/07/16 13:07:46;;;;;;;;;;;25.40;46.10;;;;;;5060486;28;19917;-53
2023/07/16 13:10:12;;;;;;;;;;;25.40;46.00;;;;;;5053792;28;19913;-52
2023/07/16 13:12:37;;;;;;;;;;;25.40;46.40;;;;;;5052650;28;19909;-53
2023/07/16 13:15:03;;;;;;;;;;;25.50;46.40;;;;;;5051425;28;19982;-52
2023/07/16 13:17:28;;;;;;;;;;;25.60;46.10;;;;;;5066787;28;20388;-52
2023/07/16 13:19:54;;;;;;;;;;;25.70;46.10;;;;;;5064434;28;19917;-53
2023/07/16 13:22:19;;;;;;;;;;;25.70;45.60;;;;;;5068369;28;19916;-52
2023/07/16 13:24:44;;;;;;;;;;;25.80;45.80;;;;;;5071624;28;19999;-52
2023/07/16 13:27:18;;;;;;;;;;;25.70;45.90;;;;;;5062590;28;20017;-53
2023/07/16 13:29:44;;;;;;;;;;;25.70;45.60;;;;;;5060435;28;19919;-53
2023/07/16 13:32:09;;;;;;;;;;;25.60;45.90;;;;;;5068030;28;19908;-53
2023/07/16 13:34:35;;;;;;;;;;;25.60;46.10;;;;;;5059051;28;19912;-52
2023/07/16 13:37:00;;;;;;;;;;;25.60;46.00;;;;;;5052910;28;20000;-52
2023/07/16 13:39:26;;;;;;;;;;;25.60;46.00;;;;;;5055042;28;20016;-52
2023/07/16 13:41:51;;;;;;;;;;;25.60;45.80;;;;;;5054327;28;19921;-52
2023/07/16 13:44:17;;;;;;;;;;;25.60;46.00;;;;;;5064812;28;19913;-52
2023/07/16 13:46:43;;;;;;;;;;;25.60;46.00;;;;;;5072233;28;20015;-52
2023/07/16 13:49:08;;;;;;;;;;;25.60;46.00;;;;;;5071160;28;19923;-52
2023/07/16 13:51:33;;;;;;;;;;;25.60;46.10;;;;;;5068956;28;19999;-51
2023/07/16 13:53:59;;;;;;;;;;;25.60;46.00;;;;;;5053935;28;19913;-52
2023/07/16 13:56:24;;;;;;;;;;;25.60;46.00;;;;;;5064161;28;19962;-52
2023/07/16 13:58:50;;;;;;;;;;;25.60;45.90;;;;;;5060876;28;19923;-52
2023/07/16 14:01:16;;;;;;;;;;;25.60;46.10;;;;;;5064162;28;19928;-52
2023/07/16 14:03:41;;;;;;;;;;;25.60;46.30;;;;;;5066028;28;19999;-52
2023/07/16 14:06:07;;;;;;;;;;;25.60;46.10;;;;;;5072268;28;20656;-52
2023/07/16 14:08:33;;;;;;;;;;;25.60;46.00;;;;;;5064796;28;19917;-52